Time;durP1;ratioP1;P1;durP2;ratioP2;P2;SDS_P1;SDS_P2;PMS_P1;PMS_P2;Temp;Humidity;BMP_temperature;BMP_pressure;BME280_temperature;BME280_humidity;BME280_pressure;Samples;Min_cycle;Max_cycle;Signal;HPM_P1;HPM_P2
2022/01/05 00:00:09;;;;;;;4.63;2.22;;;-5.00;99.90;;;;;;4935535;29;20487;-72
2022/01/05 00:02:35;;;;;;;4.63;2.28;;;-5.00;99.90;;;;;;4935190;29;20040;-73
2022/01/05 00:05:02;;;;;;;6.45;2.53;;;-5.10;99.90;;;;;;4935466;29;20027;-73
2022/01/05 00:07:28;;;;;;;2.60;2.17;;;-5.00;99.90;;;;;;4935453;29;20382;-73
2022/01/05 00:09:53;;;;;;;4.80;2.75;;;-5.00;99.90;;;;;;4935507;29;20046;-73
2022/01/05 00:12:19;;;;;;;4.53;2.33;;;-5.00;99.90;;;;;;4935238;29;20028;-73
2022/01/05 00:14:45;;;;;;;5.07;2.53;;;-5.10;99.90;;;;;;4935635;29;20395;-72
2022/01/05 00:17:10;;;;;;;4.05;2.20;;;-5.10;99.90;;;;;;4935123;29;20495;-72
2022/01/05 00:19:36;;;;;;;4.47;2.33;;;-5.10;99.90;;;;;;4935101;29;20020;-73
2022/01/05 00:22:03;;;;;;;2.88;2.22;;;-5.00;99.90;;;;;;4935072;29;20031;-73
2022/01/05 00:24:29;;;;;;;5.97;2.47;;;-5.00;99.90;;;;;;4935241;29;20036;-74
2022/01/05 00:26:55;;;;;;;4.63;2.28;;;-5.10;99.90;;;;;;4933754;29;20087;-74
2022/01/05 00:29:20;;;;;;;5.53;2.22;;;-5.10;99.90;;;;;;4934946;29;20036;-74
2022/01/05 00:31:46;;;;;;;3.42;2.50;;;-5.10;99.90;;;;;;4934998;29;20098;-74
2022/01/05 00:34:12;;;;;;;4.70;2.42;;;-5.10;99.90;;;;;;4935011;29;20020;-74
2022/01/05 00:36:39;;;;;;;4.13;2.53;;;-5.00;99.90;;;;;;4934886;29;20054;-74
2022/01/05 00:39:05;;;;;;;6.82;2.38;;;-5.00;99.90;;;;;;4934758;29;20059;-74
2022/01/05 00:41:31;;;;;;;3.42;2.28;;;-5.10;99.90;;;;;;4933489;29;20027;-74
2022/01/05 00:43:57;;;;;;;6.60;2.55;;;-5.10;99.90;;;;;;4934535;29;20039;-75
2022/01/05 00:46:22;;;;;;;4.65;2.05;;;-5.10;99.90;;;;;;4934754;29;20384;-75
2022/01/05 00:48:48;;;;;;;4.93;2.17;;;-5.10;99.90;;;;;;4934784;29;20107;-75
2022/01/05 00:51:15;;;;;;;5.75;2.10;;;-5.10;99.90;;;;;;4934803;29;20027;-75
2022/01/05 00:53:41;;;;;;;4.18;2.38;;;-5.20;99.90;;;;;;4934534;29;20237;-75
2022/01/05 00:56:07;;;;;;;8.20;2.47;;;-5.20;99.90;;;;;;4934726;29;20035;-75
2022/01/05 00:58:33;;;;;;;7.88;2.28;;;-5.30;99.90;;;;;;4934573;29;20040;-76
2022/01/05 01:00:59;;;;;;;6.03;2.55;;;-5.30;99.90;;;;;;4934712;29;20023;-76
2022/01/05 01:03:28;;;;;;;3.22;2.15;;;-5.20;99.90;;;;;;4934502;29;20031;-76
2022/01/05 01:05:54;;;;;;;3.70;2.05;;;-5.30;99.90;;;;;;4934785;29;20023;-74
2022/01/05 01:08:21;;;;;;;5.43;2.05;;;-5.30;99.90;;;;;;4934481;29;20115;-74
2022/01/05 01:10:47;;;;;;;4.68;2.20;;;-5.40;99.90;;;;;;4934684;29;20027;-73
2022/01/05 01:13:17;;;;;;;5.53;2.75;;;-5.40;99.90;;;;;;4934587;29;20361;-74
2022/01/05 01:15:50;;;;;;;6.60;2.92;;;-5.40;99.90;;;;;;4934449;29;20067;-73
2022/01/05 01:18:17;;;;;;;7.90;2.38;;;-5.40;99.90;;;;;;4934445;29;20031;-73
2022/01/05 01:20:44;;;;;;;5.97;2.15;;;-5.30;99.90;;;;;;4934697;29;20039;-73
2022/01/05 01:23:10;;;;;;;4.03;2.38;;;-5.40;99.90;;;;;;4934716;29;20035;-73
2022/01/05 01:25:36;;;;;;;4.53;2.60;;;-5.40;99.90;;;;;;4934426;29;20016;-73
2022/01/05 01:28:02;;;;;;;7.20;2.50;;;-5.30;99.90;;;;;;4934583;29;20582;-73
2022/01/05 01:30:31;;;;;;;4.82;2.47;;;-5.20;99.90;;;;;;4934689;29;20381;-73
2022/01/05 01:32:57;;;;;;;7.32;2.40;;;-5.30;99.90;;;;;;4934475;29;20028;-73
2022/01/05 01:35:23;;;;;;;4.32;2.30;;;-5.30;99.90;;;;;;4934442;29;20147;-73
2022/01/05 01:37:48;;;;;;;5.35;2.40;;;-5.40;99.90;;;;;;4934272;29;20056;-73
2022/01/05 01:40:14;;;;;;;4.00;2.70;;;-5.40;99.90;;;;;;4934559;29;20031;-73
2022/01/05 01:42:40;;;;;;;5.20;2.63;;;-5.40;99.90;;;;;;4934224;29;20439;-72
2022/01/05 01:45:06;;;;;;;3.22;2.33;;;-5.50;99.90;;;;;;4934716;29;20064;-72
2022/01/05 01:47:32;;;;;;;1.70;1.60;;;-5.40;99.90;;;;;;4934067;29;20042;-73
2022/01/05 01:49:58;;;;;;;6.78;2.20;;;-5.50;99.90;;;;;;4934335;29;20607;-73
2022/01/05 01:52:24;;;;;;;5.43;2.28;;;-5.60;99.90;;;;;;4934192;29;20034;-72
2022/01/05 01:54:51;;;;;;;5.18;2.17;;;-5.60;99.90;;;;;;4933702;29;20028;-73
2022/01/05 01:57:19;;;;;;;3.08;2.28;;;-5.60;99.90;;;;;;4937623;29;20031;-72
2022/01/05 01:59:46;;;;;;;3.97;1.83;;;-5.70;99.90;;;;;;4937540;29;20102;-72
2022/01/05 02:02:11;;;;;;;2.75;2.05;;;-5.70;99.90;;;;;;4937474;29;20028;-72
2022/01/05 02:04:39;;;;;;;4.72;2.05;;;-5.70;99.90;;;;;;4937683;29;20039;-73
2022/01/05 02:07:04;;;;;;;4.35;2.08;;;-5.70;99.90;;;;;;4937433;29;20063;-73
2022/01/05 02:09:30;;;;;;;4.72;2.65;;;-5.70;99.90;;;;;;4937658;29;20024;-74
2022/01/05 02:11:56;;;;;;;9.02;2.50;;;-5.70;99.90;;;;;;4937313;29;20024;-73
2022/01/05 02:14:22;;;;;;;4.70;2.63;;;-5.80;99.90;;;;;;4937425;29;20067;-74
2022/01/05 02:16:48;;;;;;;9.77;2.25;;;-5.70;99.90;;;;;;4937187;29;20031;-73
2022/01/05 02:19:14;;;;;;;3.63;2.55;;;-5.80;99.90;;;;;;4937225;29;20091;-73
2022/01/05 02:21:42;;;;;;;8.93;3.30;;;-5.80;99.90;;;;;;4937105;29;20026;-74
2022/01/05 02:24:08;;;;;;;5.88;2.38;;;-5.80;99.90;;;;;;4937380;29;20039;-74
2022/01/05 02:55:38;;;;;;;9.10;2.53;;;-5.90;99.90;;;;;;4936095;29;20131;-72
2022/01/05 02:58:04;;;;;;;6.32;2.47;;;-5.90;99.90;;;;;;4936485;29;20028;-73
2022/01/05 03:00:30;;;;;;;5.28;2.60;;;-5.90;99.90;;;;;;4936701;29;20020;-73
2022/01/05 03:02:55;;;;;;;7.32;2.63;;;-5.90;99.90;;;;;;4936432;29;20059;-73
2022/01/05 03:39:01;;;;;;;3.00;2.00;;;-5.90;99.90;;;;;;4873042;27;20111;-72
2022/01/05 03:41:26;;;;;;;3.83;2.00;;;-6.00;99.90;;;;;;4916689;29;20036;-72
2022/01/05 03:43:52;;;;;;;7.22;2.70;;;-6.00;99.90;;;;;;4916402;29;20044;-72
2022/01/05 03:46:18;;;;;;;4.40;2.50;;;-5.90;99.90;;;;;;4916647;29;20480;-72
2022/01/05 03:48:43;;;;;;;2.95;2.17;;;-5.90;99.90;;;;;;4916681;29;20166;-70
2022/01/05 03:51:09;;;;;;;3.47;1.83;;;-6.00;99.90;;;;;;4916557;29;20024;-70
2022/01/05 03:53:35;;;;;;;2.67;2.10;;;-6.00;99.90;;;;;;4916850;29;20032;-70
2022/01/05 03:56:02;;;;;;;3.80;2.10;;;-6.10;99.90;;;;;;4916839;29;20032;-70
2022/01/05 03:58:27;;;;;;;4.90;2.10;;;-6.10;99.90;;;;;;4916627;29;20036;-70
2022/01/05 04:00:53;;;;;;;3.10;1.90;;;-6.10;99.90;;;;;;4916814;29;20029;-70
2022/01/05 04:03:19;;;;;;;3.63;2.22;;;-6.20;99.90;;;;;;4916213;29;20471;-70
2022/01/05 04:05:45;;;;;;;3.63;2.40;;;-6.10;99.90;;;;;;4916392;29;20024;-70
2022/01/05 04:08:11;;;;;;;3.75;1.98;;;-6.10;99.90;;;;;;4916236;29;20035;-71
2022/01/05 04:10:37;;;;;;;3.40;1.92;;;-6.10;99.90;;;;;;4916452;29;20024;-72
2022/01/05 04:13:03;;;;;;;4.68;2.40;;;-6.10;99.90;;;;;;4916349;29;20028;-71
2022/01/05 04:15:29;;;;;;;3.25;1.92;;;-6.20;99.90;;;;;;4914907;29;20399;-71
2022/01/05 04:17:55;;;;;;;2.58;1.92;;;-6.10;99.90;;;;;;4915805;29;20040;-72
2022/01/05 04:20:21;;;;;;;2.72;1.83;;;-6.20;99.90;;;;;;4916228;29;20514;-72
2022/01/05 04:22:47;;;;;;;3.85;1.80;;;-6.20;99.90;;;;;;4914903;29;20048;-71
2022/01/05 04:25:13;;;;;;;2.58;1.98;;;-6.20;99.90;;;;;;4916217;29;20062;-71
2022/01/05 04:27:40;;;;;;;7.45;2.72;;;-6.30;99.90;;;;;;4916441;29;20075;-71
2022/01/05 04:30:07;;;;;;;3.25;2.25;;;-6.20;99.90;;;;;;4916250;29;20075;-72
2022/01/05 04:32:34;;;;;;;4.40;2.83;;;-6.30;99.90;;;;;;4915922;29;20078;-71
2022/01/05 04:35:00;;;;;;;3.20;2.22;;;-6.30;99.90;;;;;;4916082;29;20038;-71
2022/01/05 04:37:26;;;;;;;3.60;2.08;;;-6.30;99.90;;;;;;4915623;29;20115;-71
2022/01/05 04:39:52;;;;;;;7.43;2.33;;;-6.30;99.90;;;;;;4916002;29;20106;-69
2022/01/05 04:42:18;;;;;;;2.80;2.20;;;-6.30;99.90;;;;;;4915744;29;20028;-69
2022/01/05 04:44:44;;;;;;;4.28;2.15;;;-6.20;99.90;;;;;;4915874;29;20119;-69
2022/01/05 04:47:11;;;;;;;5.80;1.98;;;-6.10;99.90;;;;;;4915760;29;20035;-70
2022/01/05 04:49:37;;;;;;;3.33;2.03;;;-6.10;99.90;;;;;;4914457;29;20032;-73
2022/01/05 04:52:03;;;;;;;4.53;2.03;;;-6.20;99.90;;;;;;4914586;29;20035;-73
2022/01/05 04:54:28;;;;;;;3.78;1.85;;;-6.20;99.90;;;;;;4915694;29;20024;-73
2022/01/05 04:56:54;;;;;;;3.50;2.30;;;-6.20;99.90;;;;;;4915761;29;20456;-73
2022/01/05 04:59:20;;;;;;;3.90;1.90;;;-6.20;99.90;;;;;;4915604;29;20032;-73
2022/01/05 05:01:45;;;;;;;3.33;2.17;;;-6.20;99.90;;;;;;4915805;29;20025;-71
2022/01/05 05:04:11;;;;;;;2.80;2.00;;;-6.20;99.90;;;;;;4915558;29;20032;-72
2022/01/05 05:06:37;;;;;;;3.42;2.13;;;-6.30;99.90;;;;;;4915716;29;20079;-73
2022/01/05 05:09:02;;;;;;;4.18;2.35;;;-6.30;99.90;;;;;;4915501;29;20062;-73
2022/01/05 05:11:28;;;;;;;2.47;2.10;;;-6.30;99.90;;;;;;4915458;29;20020;-73
2022/01/05 05:13:54;;;;;;;5.07;2.05;;;-6.30;99.90;;;;;;4915498;29;20036;-72
2022/01/05 05:16:20;;;;;;;3.63;2.17;;;-6.40;99.90;;;;;;4915444;29;20059;-72
2022/01/05 05:18:45;;;;;;;6.75;2.45;;;-6.40;99.90;;;;;;4915477;29;20021;-72
2022/01/05 05:21:11;;;;;;;4.68;2.25;;;-6.30;99.90;;;;;;4915478;29;20033;-72
2022/01/05 05:23:37;;;;;;;2.85;2.00;;;-6.30;99.90;;;;;;4915285;29;20032;-72
2022/01/05 05:26:03;;;;;;;7.20;2.38;;;-6.30;99.90;;;;;;4915437;29;20024;-72
2022/01/05 05:28:28;;;;;;;7.50;2.80;;;-6.30;99.90;;;;;;4915160;29;20028;-71
2022/01/05 05:30:54;;;;;;;2.40;1.98;;;-6.30;99.90;;;;;;4917861;29;20039;-72
2022/01/05 05:33:20;;;;;;;6.43;2.50;;;-6.30;99.90;;;;;;4918926;29;20036;-71
2022/01/05 05:35:45;;;;;;;2.70;1.90;;;-6.20;99.90;;;;;;4918883;29;20494;-72
2022/01/05 05:38:12;;;;;;;4.10;2.20;;;-6.30;99.90;;;;;;4918659;29;20134;-69
2022/01/05 05:40:38;;;;;;;4.35;2.70;;;-6.30;99.90;;;;;;4919011;29;20083;-72
2022/01/05 05:43:04;;;;;;;5.60;2.35;;;-5.70;99.90;;;;;;4918405;29;20076;-70
2022/01/05 05:45:30;;;;;;;2.65;2.10;;;-5.60;99.90;;;;;;4918022;29;20070;-74
2022/01/05 05:47:56;;;;;;;2.72;2.28;;;-5.80;99.90;;;;;;4918472;29;20717;-69
2022/01/05 05:50:22;;;;;;;3.13;2.30;;;-6.00;99.90;;;;;;4918617;29;20050;-69
2022/01/05 05:52:48;;;;;;;4.32;2.17;;;-6.10;99.90;;;;;;4918383;29;20391;-71
2022/01/05 05:55:14;;;;;;;2.25;1.73;;;-6.10;99.90;;;;;;4918281;29;20028;-71
2022/01/05 05:57:39;;;;;;;4.75;2.50;;;-6.20;99.90;;;;;;4917103;29;20032;-69
2022/01/05 06:00:06;;;;;;;4.25;2.15;;;-6.20;99.90;;;;;;4917749;29;20391;-70
2022/01/05 06:02:32;;;;;;;2.80;1.90;;;-6.30;99.90;;;;;;4917632;29;20043;-73
2022/01/05 06:04:58;;;;;;;6.03;2.38;;;-6.20;99.90;;;;;;4917656;29;20440;-72
2022/01/05 06:07:24;;;;;;;9.57;2.40;;;-6.20;99.90;;;;;;4917812;29;20064;-72
2022/01/05 06:09:50;;;;;;;7.43;2.42;;;-6.20;99.90;;;;;;4917872;29;20087;-73
2022/01/05 06:12:15;;;;;;;4.78;2.47;;;-6.20;99.90;;;;;;4917938;29;20032;-72
2022/01/05 06:14:41;;;;;;;2.45;1.83;;;-6.20;99.90;;;;;;4918111;29;20083;-72
2022/01/05 06:17:07;;;;;;;3.88;2.08;;;-6.20;99.90;;;;;;4918174;29;20028;-73
2022/01/05 06:19:33;;;;;;;3.72;2.17;;;-6.30;99.90;;;;;;4918198;29;20065;-72
2022/01/05 06:21:58;;;;;;;3.80;2.15;;;-6.30;99.90;;;;;;4918572;29;20024;-70
2022/01/05 06:24:25;;;;;;;4.38;2.33;;;-6.40;99.90;;;;;;4918076;29;20040;-71
2022/01/05 06:26:52;;;;;;;6.90;2.20;;;-6.20;99.90;;;;;;4918169;29;20024;-71
2022/01/05 06:29:18;;;;;;;2.65;1.88;;;-6.20;99.90;;;;;;4917832;29;20028;-71
2022/01/05 06:31:45;;;;;;;3.80;2.00;;;-5.90;99.90;;;;;;4918025;29;20036;-72
2022/01/05 06:34:11;;;;;;;4.32;2.22;;;-4.10;99.90;;;;;;4917817;29;20084;-71
2022/01/05 06:36:37;;;;;;;5.95;2.17;;;-4.60;99.90;;;;;;4917549;29;20584;-71
2022/01/05 06:39:03;;;;;;;4.35;1.85;;;-5.10;99.90;;;;;;4917716;29;20052;-72
2022/01/05 06:41:29;;;;;;;4.13;2.00;;;-5.50;99.90;;;;;;4917319;29;20028;-72
2022/01/05 06:43:55;;;;;;;2.67;1.70;;;-5.80;99.90;;;;;;4917726;29;20044;-76
2022/01/05 06:46:20;;;;;;;2.70;2.17;;;-5.80;99.90;;;;;;4917632;29;20111;-71
2022/01/05 06:48:46;;;;;;;2.88;1.95;;;-5.40;99.90;;;;;;4917749;29;20102;-71
2022/01/05 06:51:12;;;;;;;4.07;2.10;;;-5.50;99.90;;;;;;4917718;29;20111;-71
2022/01/05 06:53:37;;;;;;;3.15;1.73;;;-5.70;99.90;;;;;;4917558;29;20032;-72
2022/01/05 06:56:04;;;;;;;3.75;1.90;;;-5.90;99.90;;;;;;4917411;29;20036;-71
2022/01/05 06:58:30;;;;;;;7.03;2.35;;;-6.00;99.90;;;;;;4917393;29;20387;-72
2022/01/05 07:00:56;;;;;;;6.53;2.45;;;-6.10;99.90;;;;;;4917500;29;20024;-72
2022/01/05 07:03:22;;;;;;;7.10;1.92;;;-5.90;99.90;;;;;;4917253;29;20055;-72
2022/01/05 07:05:48;;;;;;;3.53;1.98;;;-5.70;99.90;;;;;;4917540;29;20028;-72
2022/01/05 07:08:14;;;;;;;5.85;2.28;;;-5.80;99.90;;;;;;4917219;29;20419;-72
2022/01/05 07:10:40;;;;;;;6.65;2.53;;;-5.80;99.90;;;;;;4917228;29;20028;-72
2022/01/05 07:13:07;;;;;;;6.03;2.47;;;-5.90;99.90;;;;;;4915984;29;20058;-72
2022/01/05 07:15:33;;;;;;;3.72;2.38;;;-5.90;99.90;;;;;;4917136;29;20032;-72
2022/01/05 07:17:58;;;;;;;2.88;2.10;;;-5.90;99.90;;;;;;4916885;29;20039;-72
2022/01/05 07:20:24;;;;;;;4.75;2.08;;;-6.00;99.90;;;;;;4916156;29;20032;-72
2022/01/05 07:22:50;;;;;;;3.35;1.63;;;-6.10;99.90;;;;;;4916119;29;20032;-73
2022/01/05 07:25:16;;;;;;;3.72;1.80;;;-6.20;99.90;;;;;;4917081;29;20427;-72
2022/01/05 07:27:42;;;;;;;5.03;2.22;;;-6.30;99.90;;;;;;4916548;29;20107;-73
2022/01/05 07:30:09;;;;;;;8.05;2.60;;;-6.20;99.90;;;;;;4916840;29;20031;-73
2022/01/05 07:32:37;;;;;;;22.83;7.95;;;-6.20;99.90;;;;;;4916569;29;20055;-74
2022/01/05 07:35:03;;;;;;;12.98;4.82;;;-6.20;99.90;;;;;;4916345;29;20036;-70
2022/01/05 07:37:29;;;;;;;4.60;3.20;;;-6.10;99.90;;;;;;4916364;29;20498;-69
2022/01/05 07:39:55;;;;;;;6.95;3.53;;;-5.50;99.90;;;;;;4916760;29;20064;-71
2022/01/05 07:42:21;;;;;;;3.90;2.38;;;-5.30;99.90;;;;;;4916462;29;20020;-72
2022/01/05 07:44:46;;;;;;;3.85;2.10;;;-5.60;99.90;;;;;;4915334;29;20051;-70
2022/01/05 07:47:13;;;;;;;3.50;2.45;;;-5.80;99.90;;;;;;4916700;29;20039;-71
2022/01/05 07:49:39;;;;;;;3.83;2.08;;;-6.00;99.90;;;;;;4916435;29;20028;-70
2022/01/05 07:52:05;;;;;;;3.15;1.95;;;-6.10;99.90;;;;;;4916274;29;20024;-70
2022/01/05 07:54:32;;;;;;;3.65;1.90;;;-5.90;99.90;;;;;;4914811;29;20384;-70
2022/01/05 07:56:59;;;;;;;5.35;2.78;;;-5.80;99.90;;;;;;4916409;29;20038;-71
2022/01/05 07:59:24;;;;;;;4.57;2.08;;;-5.90;99.90;;;;;;4916259;29;20508;-72
2022/01/05 08:01:50;;;;;;;3.13;2.25;;;-5.90;99.90;;;;;;4915205;29;20032;-72
2022/01/05 08:04:16;;;;;;;6.85;2.70;;;-6.10;99.90;;;;;;4915915;29;20043;-71
2022/01/05 08:06:42;;;;;;;3.28;2.45;;;-6.20;99.90;;;;;;4916116;29;20028;-72
2022/01/05 08:09:08;;;;;;;8.07;3.03;;;-6.20;99.90;;;;;;4915933;29;20024;-72
2022/01/05 08:11:34;;;;;;;4.07;2.60;;;-6.30;99.90;;;;;;4916246;29;20122;-71
2022/01/05 08:14:00;;;;;;;2.80;2.20;;;-6.30;99.90;;;;;;4915988;29;20099;-72
2022/01/05 08:16:25;;;;;;;4.88;2.55;;;-6.30;99.90;;;;;;4916061;29;20024;-73
2022/01/05 08:18:51;;;;;;;3.10;2.15;;;-6.10;99.90;;;;;;4914345;29;20487;-78
2022/01/05 08:21:17;;;;;;;4.60;2.78;;;-4.90;99.90;;;;;;4914849;29;20024;-73
2022/01/05 08:23:43;;;;;;;7.45;2.97;;;-3.60;99.90;;;;;;4914540;29;20063;-72
2022/01/05 08:26:09;;;;;;;6.07;3.13;;;-0.50;99.90;;;;;;4916106;29;20103;-72
2022/01/05 08:28:36;;;;;;;4.65;2.35;;;0.60;99.90;;;;;;4916120;29;20547;-72
2022/01/05 08:31:02;;;;;;;3.95;2.20;;;0.40;99.90;;;;;;4916386;29;20024;-72
2022/01/05 08:33:28;;;;;;;4.68;2.17;;;-0.20;99.90;;;;;;4916133;29;20028;-74
2022/01/05 08:35:54;;;;;;;7.47;2.08;;;0.00;99.90;;;;;;4916066;29;20028;-72
2022/01/05 08:38:20;;;;;;;4.10;1.77;;;-0.20;99.90;;;;;;4915853;29;20548;-74
2022/01/05 08:40:46;;;;;;;3.53;2.17;;;-0.40;99.90;;;;;;4915978;29;20027;-71
2022/01/05 08:43:13;;;;;;;2.38;1.95;;;-0.80;99.90;;;;;;4915887;29;20115;-70
2022/01/05 08:45:41;;;;;;;3.85;2.25;;;-1.60;99.90;;;;;;4915806;29;20028;-70
2022/01/05 08:48:07;;;;;;;2.60;2.03;;;-2.60;99.90;;;;;;4915944;29;20062;-71
2022/01/05 08:50:34;;;;;;;4.63;2.67;;;-3.20;99.90;;;;;;4914115;29;20534;-71
2022/01/05 08:53:00;;;;;;;2.95;1.90;;;-3.50;99.90;;;;;;4915603;29;20038;-70
2022/01/05 08:55:35;;;;;;;3.85;2.10;;;-3.60;99.90;;;;;;4915188;29;20110;-71
2022/01/05 08:58:02;;;;;;;3.88;2.05;;;-3.80;99.90;;;;;;4915457;29;20044;-70
2022/01/05 09:00:27;;;;;;;5.47;2.38;;;-4.00;99.90;;;;;;4915599;29;20032;-71
2022/01/05 09:02:53;;;;;;;3.42;1.80;;;-4.00;99.90;;;;;;4915878;29;20126;-71
2022/01/05 09:05:20;;;;;;;3.13;1.98;;;-4.00;99.90;;;;;;4919030;29;20440;-71
2022/01/05 09:07:45;;;;;;;6.78;2.38;;;-4.00;99.90;;;;;;4919455;29;20492;-70
2022/01/05 09:10:12;;;;;;;3.90;1.90;;;-4.00;99.90;;;;;;4919693;29;20063;-71
2022/01/05 09:12:37;;;;;;;2.92;1.88;;;-4.20;99.90;;;;;;4919312;29;20032;-71
2022/01/05 09:15:04;;;;;;;3.65;1.70;;;-4.60;99.90;;;;;;4919332;29;20039;-70
2022/01/05 09:17:30;;;;;;;3.38;2.10;;;-4.70;99.90;;;;;;4919280;29;20128;-71
2022/01/05 09:19:56;;;;;;;4.00;2.22;;;-4.80;99.90;;;;;;4918842;29;20111;-71
2022/01/05 09:22:22;;;;;;;3.22;2.17;;;-4.90;99.90;;;;;;4919258;29;20032;-70
2022/01/05 09:24:49;;;;;;;3.15;2.15;;;-5.10;99.90;;;;;;4919197;29;20020;-70
2022/01/05 09:27:16;;;;;;;3.90;2.30;;;-5.20;99.90;;;;;;4919263;29;20518;-71
2022/01/05 09:29:42;;;;;;;3.35;1.88;;;-5.40;99.90;;;;;;4918952;29;20032;-71
2022/01/05 09:32:09;;;;;;;3.05;1.77;;;-5.50;99.90;;;;;;4918959;29;20035;-72
2022/01/05 09:34:36;;;;;;;3.35;1.77;;;-5.60;99.90;;;;;;4918998;29;20028;-70
2022/01/05 09:37:25;;;;;;;7.90;2.40;;;-5.60;99.90;;;;;;4917558;29;20448;-72
2022/01/05 09:42:36;;;;;;;3.00;2.35;;;-4.40;99.90;;;;;;4918765;29;20063;-70
2022/01/05 09:45:11;;;;;;;4.35;1.90;;;-4.80;99.90;;;;;;4918850;29;20408;-69
2022/01/05 09:47:52;;;;;;;2.55;2.00;;;-5.10;99.90;;;;;;4918780;29;20058;-70
2022/01/05 09:50:19;;;;;;;3.55;2.00;;;-5.30;99.90;;;;;;4918837;29;20121;-69
2022/01/05 09:52:46;;;;;;;2.67;1.85;;;-5.50;99.90;;;;;;4918727;29;20036;-69
2022/01/05 09:55:14;;;;;;;3.15;2.05;;;-5.60;99.90;;;;;;4918757;29;20107;-72
2022/01/05 09:57:42;;;;;;;5.47;1.85;;;-5.20;99.90;;;;;;4918818;29;20032;-72
2022/01/05 10:00:10;;;;;;;3.08;1.90;;;-5.30;99.90;;;;;;4917243;29;20024;-72
2022/01/05 10:02:37;;;;;;;1.75;1.55;;;-5.40;99.90;;;;;;4918407;29;20088;-71
2022/01/05 10:05:03;;;;;;;2.65;1.77;;;-5.50;99.90;;;;;;4918682;29;20024;-71
2022/01/05 10:07:29;;;;;;;4.68;1.77;;;-5.80;99.90;;;;;;4918210;29;20071;-72
2022/01/05 10:09:55;;;;;;;3.30;1.92;;;-5.90;99.90;;;;;;4918257;29;20032;-71
2022/01/05 10:12:21;;;;;;;3.70;2.10;;;-6.00;99.90;;;;;;4918420;29;20404;-72
2022/01/05 10:14:48;;;;;;;2.45;1.55;;;-6.00;99.90;;;;;;4916710;29;20043;-72
2022/01/05 10:17:25;;;;;;;5.28;2.10;;;-6.00;99.90;;;;;;4917456;29;20020;-71
2022/01/05 10:20:07;;;;;;;2.08;1.70;;;-6.10;99.90;;;;;;4918001;29;20088;-71
2022/01/05 10:22:42;;;;;;;4.55;2.08;;;-6.10;99.90;;;;;;4917885;29;20476;-73
2022/01/05 10:25:20;;;;;;;3.63;2.03;;;-6.10;99.90;;;;;;4917952;29;20079;-73
2022/01/05 10:28:01;;;;;;;4.60;1.85;;;-6.20;99.90;;;;;;4916511;29;20075;-73
2022/01/05 10:30:43;;;;;;;4.25;2.13;;;-6.10;99.90;;;;;;4917461;29;20062;-69
2022/01/05 10:33:09;;;;;;;2.65;2.05;;;-6.10;99.90;;;;;;4917716;29;20028;-72
2022/01/05 10:35:35;;;;;;;3.42;1.63;;;-6.10;99.90;;;;;;4917545;29;20032;-73
2022/01/05 10:38:09;;;;;;;2.63;2.10;;;-6.10;99.90;;;;;;4917457;29;20107;-73
2022/01/05 10:40:38;;;;;;;5.32;1.92;;;-6.20;99.90;;;;;;4917644;29;20474;-73
2022/01/05 10:43:12;;;;;;;3.45;1.90;;;-6.20;99.90;;;;;;4917361;29;20059;-69
2022/01/05 10:45:40;;;;;;;2.63;1.90;;;-6.20;99.90;;;;;;4917629;29;20029;-70
2022/01/05 10:48:09;;;;;;;2.08;1.70;;;-6.30;99.90;;;;;;4917569;29;20024;-70
2022/01/05 10:50:35;;;;;;;3.17;1.90;;;-6.30;99.90;;;;;;4918417;29;20028;-71
2022/01/05 10:53:02;;;;;;;3.08;2.15;;;-6.30;99.90;;;;;;4921378;29;20024;-73
2022/01/05 10:55:31;;;;;;;2.97;2.17;;;-6.20;99.90;;;;;;4917690;29;20032;-73
2022/01/05 10:58:14;;;;;;;3.75;2.03;;;-6.10;99.90;;;;;;4917596;29;20025;-73
2022/01/05 11:00:50;;;;;;;3.10;1.60;;;-6.10;99.90;;;;;;4917450;29;20028;-73
2022/01/05 11:03:22;;;;;;;2.72;1.80;;;-6.10;99.90;;;;;;4917319;29;20587;-73
2022/01/05 11:06:13;;;;;;;3.03;1.92;;;-6.20;99.90;;;;;;4917655;29;20115;-73
2022/01/05 11:09:00;;;;;;;2.95;1.83;;;-6.30;99.90;;;;;;4917348;29;20476;-73
2022/01/05 11:11:37;;;;;;;2.38;1.70;;;-6.30;99.90;;;;;;4917599;29;20028;-73
2022/01/05 11:14:12;;;;;;;2.85;1.80;;;-6.40;99.90;;;;;;4917348;29;20031;-73
2022/01/05 11:16:40;;;;;;;3.75;2.20;;;-6.40;99.90;;;;;;4917125;29;20053;-73
2022/01/05 11:19:33;;;;;;;2.83;1.88;;;-6.30;99.90;;;;;;4917140;29;20043;-72
2022/01/05 11:22:12;;;;;;;3.05;1.85;;;-6.40;99.90;;;;;;4917256;29;20484;-73
2022/01/05 11:24:42;;;;;;;2.15;1.63;;;-6.30;99.90;;;;;;4916860;29;20071;-73
2022/01/05 11:27:11;;;;;;;2.75;1.90;;;-6.40;99.90;;;;;;4917087;29;20024;-73
2022/01/05 11:29:37;;;;;;;2.38;1.80;;;-6.30;99.90;;;;;;4916802;29;20035;-73
2022/01/05 11:32:08;;;;;;;2.78;1.98;;;-6.40;99.90;;;;;;4917051;29;20032;-73
2022/01/05 11:34:34;;;;;;;2.13;1.50;;;-6.40;99.90;;;;;;4917022;29;20036;-73
2022/01/05 11:37:03;;;;;;;4.25;2.08;;;-6.40;99.90;;;;;;4916611;29;20510;-73
2022/01/05 11:39:31;;;;;;;2.67;1.77;;;-6.40;99.90;;;;;;4915852;29;20041;-73
2022/01/05 11:42:00;;;;;;;3.53;1.63;;;-6.50;99.90;;;;;;4916946;29;20281;-73
2022/01/05 11:44:28;;;;;;;2.95;1.77;;;-6.50;99.90;;;;;;4916859;29;20040;-73
2022/01/05 11:46:54;;;;;;;1.60;1.50;;;-6.50;99.90;;;;;;4916643;29;20111;-73
2022/01/05 11:49:28;;;;;;;1.92;1.77;;;-6.50;99.90;;;;;;4917005;29;20061;-73
2022/01/05 11:51:58;;;;;;;1.98;1.80;;;-6.60;99.90;;;;;;4915151;29;20045;-73
2022/01/05 11:54:32;;;;;;;3.80;1.87;;;-6.60;99.90;;;;;;4916793;29;20046;-73
2022/01/05 11:57:12;;;;;;;3.30;1.60;;;-6.60;99.90;;;;;;4916536;29;20031;-73
2022/01/05 11:59:42;;;;;;;2.08;1.77;;;-6.60;99.90;;;;;;4916485;29;20032;-72
2022/01/05 12:02:17;;;;;;;1.98;1.85;;;-6.70;99.90;;;;;;4916622;29;20055;-73
2022/01/05 12:04:53;;;;;;;1.83;1.73;;;-6.70;99.90;;;;;;4915718;29;20044;-69
2022/01/05 12:07:46;;;;;;;2.88;1.70;;;-6.70;99.90;;;;;;4916207;29;20024;-69
2022/01/05 12:10:12;;;;;;;2.65;1.85;;;-6.70;99.90;;;;;;4916414;29;20024;-70
2022/01/05 12:13:02;;;;;;;1.77;1.65;;;-6.70;99.90;;;;;;4916120;29;20059;-70
2022/01/05 12:15:53;;;;;;;2.13;1.95;;;-6.70;99.90;;;;;;4916491;29;20436;-69
2022/01/05 12:18:27;;;;;;;4.03;1.63;;;-6.70;99.90;;;;;;4916277;29;20103;-69
2022/01/05 12:20:54;;;;;;;2.40;1.58;;;-6.70;99.90;;;;;;4915812;29;20036;-70
2022/01/05 12:23:27;;;;;;;3.33;1.80;;;-6.70;99.90;;;;;;4916018;29;20068;-69
2022/01/05 12:26:05;;;;;;;4.53;1.80;;;-6.70;99.90;;;;;;4915896;29;20032;-70
2022/01/05 12:28:37;;;;;;;3.42;1.70;;;-6.70;99.90;;;;;;4916327;29;20028;-70
2022/01/05 12:31:03;;;;;;;2.80;1.90;;;-6.70;99.90;;;;;;4915729;29;20428;-69
2022/01/05 12:33:48;;;;;;;2.78;1.65;;;-6.80;99.90;;;;;;4916060;29;20036;-69
2022/01/05 12:36:33;;;;;;;4.65;2.22;;;-6.80;99.90;;;;;;4916134;29;20107;-69
2022/01/05 12:38:59;;;;;;;2.33;1.85;;;-6.90;99.90;;;;;;4915467;29;20658;-69
2022/01/05 12:41:44;;;;;;;3.08;2.03;;;-6.90;99.90;;;;;;4915973;29;20032;-70
2022/01/05 12:44:15;;;;;;;3.05;1.88;;;-6.90;99.90;;;;;;4915805;29;20062;-69
2022/01/05 12:46:45;;;;;;;3.72;1.70;;;-7.00;99.90;;;;;;4915797;29;20028;-70
2022/01/05 12:49:12;;;;;;;2.75;1.80;;;-7.00;99.90;;;;;;4915691;29;20113;-69
2022/01/05 12:51:52;;;;;;;1.73;1.60;;;-7.00;99.90;;;;;;4915809;29;20037;-69
2022/01/05 12:54:26;;;;;;;3.50;1.50;;;-7.00;99.90;;;;;;4915791;29;20020;-70
2022/01/05 12:57:00;;;;;;;3.25;1.73;;;-7.00;99.90;;;;;;4915174;29;20029;-71
2022/01/05 12:59:29;;;;;;;4.78;1.83;;;-7.00;99.90;;;;;;4905617;29;20027;-71
2022/01/05 13:02:00;;;;;;;3.63;1.92;;;-6.90;99.90;;;;;;4915588;29;20629;-71
2022/01/05 13:04:27;;;;;;;2.58;1.60;;;-6.90;99.90;;;;;;4915538;29;20770;-71
2022/01/05 13:06:58;;;;;;;3.80;1.88;;;-7.00;99.90;;;;;;4915506;29;20020;-72
2022/01/05 13:09:34;;;;;;;3.72;1.77;;;-7.10;99.90;;;;;;4915811;29;20079;-72
2022/01/05 13:12:06;;;;;;;2.60;1.83;;;-7.10;99.90;;;;;;4915801;29;20094;-71
2022/01/05 13:14:40;;;;;;;1.88;1.73;;;-7.10;99.90;;;;;;4915732;29;20051;-71
2022/01/05 13:17:07;;;;;;;2.42;1.50;;;-7.10;99.90;;;;;;4915781;29;20062;-71
2022/01/05 13:19:44;;;;;;;1.65;1.50;;;-7.10;99.90;;;;;;4915491;29;20588;-72
2022/01/05 13:22:23;;;;;;;2.85;1.67;;;-7.10;99.90;;;;;;4915559;29;20032;-71
2022/01/05 13:24:54;;;;;;;2.28;1.98;;;-7.10;99.90;;;;;;4915255;29;20117;-70
2022/01/05 13:27:26;;;;;;;5.43;1.90;;;-4.00;99.90;;;;;;4915468;29;20070;-71
2022/01/05 13:29:53;;;;;;;1.48;1.38;;;-4.30;99.90;;;;;;4915268;29;20032;-71
2022/01/05 13:32:20;;;;;;;1.42;1.23;;;-5.00;99.90;;;;;;4915585;29;20025;-71
2022/01/05 13:34:48;;;;;;;1.95;1.50;;;-5.60;99.90;;;;;;4914014;29;20635;-71
2022/01/05 13:37:32;;;;;;;2.95;1.67;;;-6.00;99.90;;;;;;4915079;29;20056;-71
2022/01/05 13:40:05;;;;;;;4.20;2.00;;;-6.20;99.90;;;;;;4915260;29;20396;-71
2022/01/05 13:42:40;;;;;;;4.80;1.90;;;-6.30;99.90;;;;;;4915381;29;20025;-71
2022/01/05 13:45:09;;;;;;;6.13;1.83;;;-6.50;99.90;;;;;;4915406;29;20028;-71
2022/01/05 13:47:35;;;;;;;4.60;1.67;;;-6.70;99.90;;;;;;4915671;29;20599;-71
2022/01/05 13:50:08;;;;;;;1.73;1.60;;;-6.80;99.90;;;;;;4915475;29;20040;-71
2022/01/05 13:52:34;;;;;;;3.03;1.90;;;-6.80;99.90;;;;;;4918636;29;20509;-71
2022/01/05 13:55:00;;;;;;;3.28;2.00;;;-6.70;99.90;;;;;;4918577;29;20040;-70
2022/01/05 13:57:25;;;;;;;2.45;1.83;;;-6.70;99.90;;;;;;4918757;29;20032;-72